sensor_id;sensor_type;location;lat;lon;timestamp;pressure;altitude;pressure_sealevel;temperature;humidity
36222;BME280;22266;52.340;4.962;2023-02-17T00:00:52;101803.84;;;9.98;88.44
36222;BME280;22266;52.340;4.962;2023-02-17T00:03:18;101804.66;;;9.99;88.59
36222;BME280;22266;52.340;4.962;2023-02-17T00:05:45;101804.00;;;9.97;88.40
36222;BME280;22266;52.340;4.962;2023-02-17T00:08:13;101808.38;;;9.98;88.58
36222;BME280;22266;52.340;4.962;2023-02-17T00:10:39;101809.22;;;9.98;88.26
36222;BME280;22266;52.340;4.962;2023-02-17T00:13:06;101808.53;;;9.96;88.39
36222;BME280;22266;52.340;4.962;2023-02-17T00:15:32;101811.06;;;9.98;88.27
36222;BME280;22266;52.340;4.962;2023-02-17T00:17:59;101809.03;;;9.91;88.76
36222;BME280;22266;52.340;4.962;2023-02-17T00:20:27;101815.59;;;9.89;88.55
36222;BME280;22266;52.340;4.962;2023-02-17T00:22:54;101813.75;;;9.89;89.07
36222;BME280;22266;52.340;4.962;2023-02-17T00:25:20;101804.84;;;9.89;89.14
36222;BME280;22266;52.340;4.962;2023-02-17T00:27:46;101796.06;;;9.87;89.21
36222;BME280;22266;52.340;4.962;2023-02-17T00:30:13;101803.81;;;9.82;89.28
36222;BME280;22266;52.340;4.962;2023-02-17T00:32:39;101804.81;;;9.81;89.24
36222;BME280;22266;52.340;4.962;2023-02-17T00:35:06;101804.31;;;9.77;89.82
36222;BME280;22266;52.340;4.962;2023-02-17T00:37:34;101790.19;;;9.75;89.94
36222;BME280;22266;52.340;4.962;2023-02-17T00:40:00;101789.53;;;9.81;90.09
36222;BME280;22266;52.340;4.962;2023-02-17T00:42:27;101792.88;;;9.83;89.74
36222;BME280;22266;52.340;4.962;2023-02-17T00:44:57;101782.97;;;9.84;89.56
36222;BME280;22266;52.340;4.962;2023-02-17T00:47:23;101786.16;;;9.79;89.62
36222;BME280;22266;52.340;4.962;2023-02-17T00:49:50;101783.13;;;9.74;89.15
36222;BME280;22266;52.340;4.962;2023-02-17T00:52:17;101781.44;;;9.73;89.37
36222;BME280;22266;52.340;4.962;2023-02-17T00:54:43;101778.75;;;9.65;89.96
36222;BME280;22266;52.340;4.962;2023-02-17T00:57:10;101785.47;;;9.69;89.78
36222;BME280;22266;52.340;4.962;2023-02-17T00:59:36;101785.13;;;9.72;89.60
36222;BME280;22266;52.340;4.962;2023-02-17T01:02:06;101800.44;;;9.80;90.36
36222;BME280;22266;52.340;4.962;2023-02-17T01:04:34;101792.22;;;9.73;89.67
36222;BME280;22266;52.340;4.962;2023-02-17T01:07:01;101783.97;;;9.83;89.70
36222;BME280;22266;52.340;4.962;2023-02-17T01:09:27;101788.19;;;9.77;89.16
36222;BME280;22266;52.340;4.962;2023-02-17T01:11:54;101790.03;;;9.77;89.95
36222;BME280;22266;52.340;4.962;2023-02-17T01:14:20;101784.47;;;9.78;89.68
36222;BME280;22266;52.340;4.962;2023-02-17T01:16:47;101784.13;;;9.73;89.71
36222;BME280;22266;52.340;4.962;2023-02-17T01:19:17;101782.47;;;9.80;89.53
36222;BME280;22266;52.340;4.962;2023-02-17T01:21:46;101780.78;;;9.79;89.22
36222;BME280;22266;52.340;4.962;2023-02-17T01:24:14;101771.38;;;9.83;89.12
36222;BME280;22266;52.340;4.962;2023-02-17T01:26:40;101782.81;;;9.77;88.96
36222;BME280;22266;52.340;4.962;2023-02-17T01:29:07;101778.75;;;9.73;89.55
36222;BME280;22266;52.340;4.962;2023-02-17T01:31:34;101781.97;;;9.77;89.49
36222;BME280;22266;52.340;4.962;2023-02-17T01:34:02;101791.84;;;9.76;89.35
36222;BME280;22266;52.340;4.962;2023-02-17T01:36:30;101789.34;;;9.75;89.17
36222;BME280;22266;52.340;4.962;2023-02-17T01:38:57;101786.81;;;9.73;88.70
36222;BME280;22266;52.340;4.962;2023-02-17T01:41:26;101791.19;;;9.74;89.25
36222;BME280;22266;52.340;4.962;2023-02-17T01:44:16;101789.50;;;9.73;89.00
36222;BME280;22266;52.340;4.962;2023-02-17T01:46:46;101781.09;;;9.76;89.20
36222;BME280;22266;52.340;4.962;2023-02-17T01:49:29;101776.41;;;9.78;88.56
36222;BME280;22266;52.340;4.962;2023-02-17T01:54:46;101762.78;;;9.80;88.74
36222;BME280;22266;52.340;4.962;2023-02-17T01:57:17;101767.00;;;9.82;88.27
36222;BME280;22266;52.340;4.962;2023-02-17T01:59:46;101750.88;;;9.82;88.61
36222;BME280;22266;52.340;4.962;2023-02-17T02:02:14;101748.34;;;9.81;88.59
36222;BME280;22266;52.340;4.962;2023-02-17T02:04:44;101742.28;;;9.79;88.18
36222;BME280;22266;52.340;4.962;2023-02-17T02:07:22;101737.59;;;9.81;88.02
36222;BME280;22266;52.340;4.962;2023-02-17T02:09:54;101736.25;;;9.77;87.83
36222;BME280;22266;52.340;4.962;2023-02-17T02:12:29;101740.44;;;9.71;88.26
36222;BME280;22266;52.340;4.962;2023-02-17T02:15:08;101735.56;;;9.66;87.81
36222;BME280;22266;52.340;4.962;2023-02-17T02:20:44;101732.88;;;9.66;88.22
36222;BME280;22266;52.340;4.962;2023-02-17T02:37:52;101725.59;;;9.43;88.57
36222;BME280;22266;52.340;4.962;2023-02-17T02:40:26;101723.44;;;9.46;88.63
36222;BME280;22266;52.340;4.962;2023-02-17T02:42:55;101714.84;;;9.43;88.09
36222;BME280;22266;52.340;4.962;2023-02-17T02:45:22;101710.84;;;9.47;88.12
36222;BME280;22266;52.340;4.962;2023-02-17T02:47:51;101706.47;;;9.46;88.31
36222;BME280;22266;52.340;4.962;2023-02-17T02:50:46;101708.47;;;9.52;88.12
36222;BME280;22266;52.340;4.962;2023-02-17T03:01:59;101713.53;;;9.47;87.22
36222;BME280;22266;52.340;4.962;2023-02-17T03:04:37;101706.97;;;9.49;87.45
36222;BME280;22266;52.340;4.962;2023-02-17T03:07:11;101701.59;;;9.49;87.85
36222;BME280;22266;52.340;4.962;2023-02-17T03:09:49;101698.91;;;9.49;87.15
36222;BME280;22266;52.340;4.962;2023-02-17T03:12:17;101684.13;;;9.37;87.13
36222;BME280;22266;52.340;4.962;2023-02-17T03:14:46;101686.50;;;9.40;87.03
36222;BME280;22266;52.340;4.962;2023-02-17T03:17:15;101690.53;;;9.44;87.36
36222;BME280;22266;52.340;4.962;2023-02-17T03:19:41;101675.75;;;9.40;87.49
36222;BME280;22266;52.340;4.962;2023-02-17T03:22:21;101675.22;;;9.36;87.56
36222;BME280;22266;52.340;4.962;2023-02-17T03:24:49;101668.16;;;9.35;87.42
36222;BME280;22266;52.340;4.962;2023-02-17T03:27:16;101672.19;;;9.39;87.47
36222;BME280;22266;52.340;4.962;2023-02-17T03:29:43;101664.63;;;9.35;87.89
36222;BME280;22266;52.340;4.962;2023-02-17T03:32:10;101668.00;;;9.29;87.69
36222;BME280;22266;52.340;4.962;2023-02-17T03:34:36;101658.91;;;9.30;87.88
36222;BME280;22266;52.340;4.962;2023-02-17T03:37:03;101662.28;;;9.32;88.66
36222;BME280;22266;52.340;4.962;2023-02-17T03:39:29;101665.44;;;9.27;87.77
36222;BME280;22266;52.340;4.962;2023-02-17T03:41:56;101672.84;;;9.25;88.58
36222;BME280;22266;52.340;4.962;2023-02-17T03:44:23;101662.63;;;9.29;88.13
36222;BME280;22266;52.340;4.962;2023-02-17T03:46:49;101668.50;;;9.32;88.37
36222;BME280;22266;52.340;4.962;2023-02-17T03:49:16;101666.81;;;9.31;88.10
36222;BME280;22266;52.340;4.962;2023-02-17T03:51:42;101664.47;;;9.28;88.09
36222;BME280;22266;52.340;4.962;2023-02-17T03:54:09;101664.28;;;9.30;88.56
36222;BME280;22266;52.340;4.962;2023-02-17T03:56:35;101669.34;;;9.33;88.64
36222;BME280;22266;52.340;4.962;2023-02-17T03:59:02;101662.13;;;9.33;88.64
36222;BME280;22266;52.340;4.962;2023-02-17T04:01:29;101666.44;;;9.18;88.85
36222;BME280;22266;52.340;4.962;2023-02-17T04:03:55;101663.13;;;9.24;89.31
36222;BME280;22266;52.340;4.962;2023-02-17T04:06:22;101672.50;;;9.20;88.81
36222;BME280;22266;52.340;4.962;2023-02-17T04:08:48;101669.16;;;9.26;89.22
36222;BME280;22266;52.340;4.962;2023-02-17T04:11:15;101668.66;;;9.31;89.42
36222;BME280;22266;52.340;4.962;2023-02-17T04:13:41;101668.50;;;9.24;89.50
36222;BME280;22266;52.340;4.962;2023-02-17T04:16:09;101654.69;;;9.27;89.17
36222;BME280;22266;52.340;4.962;2023-02-17T04:18:36;101654.38;;;9.22;89.31
36222;BME280;22266;52.340;4.962;2023-02-17T04:21:03;101654.22;;;9.24;89.97
36222;BME280;22266;52.340;4.962;2023-02-17T04:23:30;101642.13;;;9.28;89.39
36222;BME280;22266;52.340;4.962;2023-02-17T04:25:56;101649.50;;;9.26;89.06
36222;BME280;22266;52.340;4.962;2023-02-17T04:28:23;101661.28;;;9.33;89.90
36222;BME280;22266;52.340;4.962;2023-02-17T04:30:50;101647.66;;;9.34;89.59
36222;BME280;22266;52.340;4.962;2023-02-17T04:33:17;101649.00;;;9.38;89.45
36222;BME280;22266;52.340;4.962;2023-02-17T04:35:44;101645.31;;;9.39;89.86
36222;BME280;22266;52.340;4.962;2023-02-17T04:38:10;101637.63;;;9.45;89.44
36222;BME280;22266;52.340;4.962;2023-02-17T04:40:38;101637.44;;;9.38;89.40
36222;BME280;22266;52.340;4.962;2023-02-17T04:43:05;101632.38;;;9.35;89.06
36222;BME280;22266;52.340;4.962;2023-02-17T04:45:33;101643.63;;;9.38;89.78
36222;BME280;22266;52.340;4.962;2023-02-17T04:47:59;101645.31;;;9.39;89.67
36222;BME280;22266;52.340;4.962;2023-02-17T04:50:25;101650.53;;;9.41;89.37
36222;BME280;22266;52.340;4.962;2023-02-17T04:52:52;101654.41;;;9.47;89.97
36222;BME280;22266;52.340;4.962;2023-02-17T04:55:18;101663.16;;;9.49;89.09
36222;BME280;22266;52.340;4.962;2023-02-17T04:57:45;101665.97;;;9.47;89.36
36222;BME280;22266;52.340;4.962;2023-02-17T05:00:12;101663.47;;;9.46;89.47
36222;BME280;22266;52.340;4.962;2023-02-17T05:02:38;101658.75;;;9.48;89.31
36222;BME280;22266;52.340;4.962;2023-02-17T05:05:05;101657.25;;;9.45;89.25
36222;BME280;22266;52.340;4.962;2023-02-17T05:07:32;101651.38;;;9.50;89.17
36222;BME280;22266;52.340;4.962;2023-02-17T05:09:58;101649.03;;;9.55;89.80
36222;BME280;22266;52.340;4.962;2023-02-17T05:12:24;101642.63;;;9.48;89.36
36222;BME280;22266;52.340;4.962;2023-02-17T05:14:51;101643.97;;;9.52;89.85
36222;BME280;22266;52.340;4.962;2023-02-17T05:17:17;101640.97;;;9.47;89.77
36222;BME280;22266;52.340;4.962;2023-02-17T05:19:44;101635.25;;;9.50;89.70
36222;BME280;22266;52.340;4.962;2023-02-17T05:22:10;101643.66;;;9.47;89.93
36222;BME280;22266;52.340;4.962;2023-02-17T05:24:37;101624.19;;;9.45;89.77
36222;BME280;22266;52.340;4.962;2023-02-17T05:27:04;101627.38;;;9.48;89.95
36222;BME280;22266;52.340;4.962;2023-02-17T05:29:31;101614.91;;;9.47;90.15
36222;BME280;22266;52.340;4.962;2023-02-17T05:31:57;101617.09;;;9.44;90.39
36222;BME280;22266;52.340;4.962;2023-02-17T05:34:23;101612.41;;;9.46;90.54
36222;BME280;22266;52.340;4.962;2023-02-17T05:36:50;101610.75;;;9.45;90.64
36222;BME280;22266;52.340;4.962;2023-02-17T05:39:16;101612.75;;;9.51;90.99
36222;BME280;22266;52.340;4.962;2023-02-17T05:41:43;101609.91;;;9.52;90.66
36222;BME280;22266;52.340;4.962;2023-02-17T05:44:09;101610.88;;;9.51;90.75
36222;BME280;22266;52.340;4.962;2023-02-17T05:46:36;101602.00;;;9.51;91.10
36222;BME280;22266;52.340;4.962;2023-02-17T05:49:03;101603.50;;;9.53;91.31
36222;BME280;22266;52.340;4.962;2023-02-17T05:51:29;101607.38;;;9.59;91.37
36222;BME280;22266;52.340;4.962;2023-02-17T05:53:56;101613.25;;;9.54;90.84
36222;BME280;22266;52.340;4.962;2023-02-17T05:56:22;101621.50;;;9.61;91.63
36222;BME280;22266;52.340;4.962;2023-02-17T05:58:49;101630.53;;;9.60;91.09
36222;BME280;22266;52.340;4.962;2023-02-17T06:01:15;101633.59;;;9.57;91.45
36222;BME280;22266;52.340;4.962;2023-02-17T06:03:41;101614.59;;;9.58;91.24
36222;BME280;22266;52.340;4.962;2023-02-17T06:06:08;101605.88;;;9.64;91.40
36222;BME280;22266;52.340;4.962;2023-02-17T06:08:35;101604.66;;;9.59;91.50
36222;BME280;22266;52.340;4.962;2023-02-17T06:11:02;101593.41;;;9.55;91.29
36222;BME280;22266;52.340;4.962;2023-02-17T06:13:28;101593.09;;;9.58;91.28
36222;BME280;22266;52.340;4.962;2023-02-17T06:15:55;101588.72;;;9.57;91.50
36222;BME280;22266;52.340;4.962;2023-02-17T06:18:21;101580.66;;;9.57;91.62
36222;BME280;22266;52.340;4.962;2023-02-17T06:20:48;101589.22;;;9.61;91.99
36222;BME280;22266;52.340;4.962;2023-02-17T06:23:15;101574.09;;;9.52;91.48
36222;BME280;22266;52.340;4.962;2023-02-17T06:25:42;101585.84;;;9.59;92.12
36222;BME280;22266;52.340;4.962;2023-02-17T06:28:08;101585.53;;;9.62;91.61
36222;BME280;22266;52.340;4.962;2023-02-17T06:30:35;101592.56;;;9.63;91.98
36222;BME280;22266;52.340;4.962;2023-02-17T06:33:01;101578.28;;;9.62;92.26
36222;BME280;22266;52.340;4.962;2023-02-17T06:35:27;101577.66;;;9.60;92.21
36222;BME280;22266;52.340;4.962;2023-02-17T06:37:54;101571.59;;;9.58;91.98
36222;BME280;22266;52.340;4.962;2023-02-17T06:40:20;101563.50;;;9.66;91.99
36222;BME280;22266;52.340;4.962;2023-02-17T06:42:47;101566.69;;;9.70;91.71
36222;BME280;22266;52.340;4.962;2023-02-17T06:45:13;101558.63;;;9.70;92.14
36222;BME280;22266;52.340;4.962;2023-02-17T06:47:40;101553.91;;;9.64;92.47
36222;BME280;22266;52.340;4.962;2023-02-17T06:50:07;101551.59;;;9.61;92.23
36222;BME280;22266;52.340;4.962;2023-02-17T06:52:33;101572.41;;;9.67;92.48
36222;BME280;22266;52.340;4.962;2023-02-17T06:55:00;101580.47;;;9.75;92.55
36222;BME280;22266;52.340;4.962;2023-02-17T06:57:26;101589.53;;;9.74;91.98
36222;BME280;22266;52.340;4.962;2023-02-17T06:59:53;101589.72;;;9.73;91.94
36222;BME280;22266;52.340;4.962;2023-02-17T07:02:19;101577.44;;;9.70;92.20
36222;BME280;22266;52.340;4.962;2023-02-17T07:04:46;101579.81;;;9.73;92.39
36222;BME280;22266;52.340;4.962;2023-02-17T07:07:13;101596.59;;;9.67;92.60
36222;BME280;22266;52.340;4.962;2023-02-17T07:09:40;101587.69;;;9.66;92.53
36222;BME280;22266;52.340;4.962;2023-02-17T07:12:06;101551.91;;;9.74;92.24
36222;BME280;22266;52.340;4.962;2023-02-17T07:14:34;101573.75;;;9.71;92.25
36222;BME280;22266;52.340;4.962;2023-02-17T07:17:01;101560.63;;;9.68;92.76
36222;BME280;22266;52.340;4.962;2023-02-17T07:19:27;101551.72;;;9.76;92.55
36222;BME280;22266;52.340;4.962;2023-02-17T07:21:54;101562.34;;;9.69;92.25
36222;BME280;22266;52.340;4.962;2023-02-17T07:24:20;101566.19;;;9.75;92.53
36222;BME280;22266;52.340;4.962;2023-02-17T07:26:47;101556.94;;;9.77;92.27
36222;BME280;22266;52.340;4.962;2023-02-17T07:29:13;101569.88;;;9.74;92.05
36222;BME280;22266;52.340;4.962;2023-02-17T07:31:40;101569.69;;;9.75;91.90
36222;BME280;22266;52.340;4.962;2023-02-17T07:34:06;101559.63;;;9.77;91.96
36222;BME280;22266;52.340;4.962;2023-02-17T07:36:33;101567.53;;;9.79;91.98
36222;BME280;22266;52.340;4.962;2023-02-17T07:39:00;101559.13;;;9.74;91.47
36222;BME280;22266;52.340;4.962;2023-02-17T07:41:27;101550.22;;;9.73;92.07
36222;BME280;22266;52.340;4.962;2023-02-17T07:43:55;101543.16;;;9.72;92.35
36222;BME280;22266;52.340;4.962;2023-02-17T07:46:22;101555.59;;;9.81;91.99
36222;BME280;22266;52.340;4.962;2023-02-17T07:48:49;101553.25;;;9.78;92.31
36222;BME280;22266;52.340;4.962;2023-02-17T07:51:19;101567.19;;;9.82;92.19
36222;BME280;22266;52.340;4.962;2023-02-17T07:53:47;101579.28;;;9.78;91.96
36222;BME280;22266;52.340;4.962;2023-02-17T07:56:14;101591.91;;;9.77;92.37
36222;BME280;22266;52.340;4.962;2023-02-17T07:58:43;101586.34;;;9.79;91.70
36222;BME280;22266;52.340;4.962;2023-02-17T08:01:14;101595.59;;;9.84;91.74
36222;BME280;22266;52.340;4.962;2023-02-17T08:03:41;101594.06;;;9.82;91.98
36222;BME280;22266;52.340;4.962;2023-02-17T08:06:10;101605.47;;;9.84;92.34
36222;BME280;22266;52.340;4.962;2023-02-17T08:08:36;101622.63;;;9.91;91.56
36222;BME280;22266;52.340;4.962;2023-02-17T08:11:21;101627.50;;;9.87;91.35
36222;BME280;22266;52.340;4.962;2023-02-17T08:14:08;101609.88;;;9.77;92.12
36222;BME280;22266;52.340;4.962;2023-02-17T08:16:36;101614.06;;;9.79;91.91
36222;BME280;22266;52.340;4.962;2023-02-17T08:19:03;101598.13;;;9.78;92.11
36222;BME280;22266;52.340;4.962;2023-02-17T08:21:33;101599.97;;;9.77;91.97
36222;BME280;22266;52.340;4.962;2023-02-17T08:23:59;101612.38;;;9.78;91.81
36222;BME280;22266;52.340;4.962;2023-02-17T08:26:26;101624.47;;;9.82;91.85
36222;BME280;22266;52.340;4.962;2023-02-17T08:28:52;101632.38;;;9.84;92.00
36222;BME280;22266;52.340;4.962;2023-02-17T08:31:31;101629.88;;;9.82;91.87
36222;BME280;22266;52.340;4.962;2023-02-17T08:34:04;101627.50;;;9.79;91.74
36222;BME280;22266;52.340;4.962;2023-02-17T08:36:31;101625.16;;;9.76;92.10
36222;BME280;22266;52.340;4.962;2023-02-17T08:38:59;101628.84;;;9.75;92.55
36222;BME280;22266;52.340;4.962;2023-02-17T08:41:32;101612.91;;;9.82;92.04
36222;BME280;22266;52.340;4.962;2023-02-17T08:44:02;101610.00;;;9.91;91.80
36222;BME280;22266;52.340;4.962;2023-02-17T08:46:33;101608.66;;;9.87;91.79
36222;BME280;22266;52.340;4.962;2023-02-17T08:49:00;101626.34;;;9.82;91.94
36222;BME280;22266;52.340;4.962;2023-02-17T08:51:26;101626.66;;;9.87;92.31
36222;BME280;22266;52.340;4.962;2023-02-17T08:53:55;101628.00;;;9.91;91.53
36222;BME280;22266;52.340;4.962;2023-02-17T08:56:23;101638.75;;;9.99;91.64
36222;BME280;22266;52.340;4.962;2023-02-17T08:58:50;101631.69;;;9.98;91.16
36222;BME280;22266;52.340;4.962;2023-02-17T09:01:17;101632.03;;;9.95;91.73
36222;BME280;22266;52.340;4.962;2023-02-17T09:03:45;101627.47;;;9.96;91.58
36222;BME280;22266;52.340;4.962;2023-02-17T09:06:12;101610.00;;;10.00;91.33
36222;BME280;22266;52.340;4.962;2023-02-17T09:08:41;101607.66;;;10.05;90.77
36222;BME280;22266;52.340;4.962;2023-02-17T09:11:08;101612.00;;;10.06;90.96
36222;BME280;22266;52.340;4.962;2023-02-17T09:13:36;101612.16;;;10.04;90.93
36222;BME280;22266;52.340;4.962;2023-02-17T09:16:03;101618.41;;;10.05;90.87
36222;BME280;22266;52.340;4.962;2023-02-17T09:18:30;101610.66;;;10.10;91.12
36222;BME280;22266;52.340;4.962;2023-02-17T09:20:56;101625.09;;;10.17;90.53
36222;BME280;22266;52.340;4.962;2023-02-17T09:23:23;101618.88;;;10.25;90.29
36222;BME280;22266;52.340;4.962;2023-02-17T09:26:09;101609.63;;;10.27;90.35
36222;BME280;22266;52.340;4.962;2023-02-17T09:28:37;101587.56;;;10.32;89.88
36222;BME280;22266;52.340;4.962;2023-02-17T09:31:11;101595.31;;;10.27;90.13
36222;BME280;22266;52.340;4.962;2023-02-17T09:33:40;101600.91;;;10.25;89.88
36222;BME280;22266;52.340;4.962;2023-02-17T09:36:09;101573.97;;;10.25;90.07
36222;BME280;22266;52.340;4.962;2023-02-17T09:38:37;101578.47;;;10.33;89.67
36222;BME280;22266;52.340;4.962;2023-02-17T09:41:25;101594.13;;;10.37;89.38
36222;BME280;22266;52.340;4.962;2023-02-17T09:43:53;101600.50;;;10.36;89.03
36222;BME280;22266;52.340;4.962;2023-02-17T09:46:32;101608.94;;;10.33;89.49
36222;BME280;22266;52.340;4.962;2023-02-17T09:49:11;101602.88;;;10.31;89.11
36222;BME280;22266;52.340;4.962;2023-02-17T09:52:01;101611.44;;;10.35;89.04
36222;BME280;22266;52.340;4.962;2023-02-17T09:54:39;101614.78;;;10.37;89.18
36222;BME280;22266;52.340;4.962;2023-02-17T09:57:12;101644.53;;;10.44;89.06
36222;BME280;22266;52.340;4.962;2023-02-17T09:59:44;101622.84;;;10.45;88.58
36222;BME280;22266;52.340;4.962;2023-02-17T10:02:24;101629.75;;;10.39;88.73
36222;BME280;22266;52.340;4.962;2023-02-17T10:04:55;101633.78;;;10.44;88.54
36222;BME280;22266;52.340;4.962;2023-02-17T10:07:32;101618.97;;;10.48;88.23
36222;BME280;22266;52.340;4.962;2023-02-17T10:10:08;101641.16;;;10.50;88.58
36222;BME280;22266;52.340;4.962;2023-02-17T10:12:45;101637.75;;;10.56;88.43
36222;BME280;22266;52.340;4.962;2023-02-17T10:15:18;101645.03;;;10.47;88.29
36222;BME280;22266;52.340;4.962;2023-02-17T10:18:09;101650.09;;;10.50;88.35
36222;BME280;22266;52.340;4.962;2023-02-17T10:20:46;101659.31;;;10.56;87.85
36222;BME280;22266;52.340;4.962;2023-02-17T10:23:23;101652.22;;;10.63;88.27
36222;BME280;22266;52.340;4.962;2023-02-17T10:31:35;101652.19;;;10.71;86.74
36222;BME280;22266;52.340;4.962;2023-02-17T10:37:03;101636.81;;;11.11;87.40
36222;BME280;22266;52.340;4.962;2023-02-17T10:44:42;101671.75;;;10.96;85.15
36222;BME280;22266;52.340;4.962;2023-02-17T10:47:09;101679.72;;;10.81;85.37
36222;BME280;22266;52.340;4.962;2023-02-17T10:49:42;101674.00;;;10.84;84.86
36222;BME280;22266;52.340;4.962;2023-02-17T10:52:20;101691.38;;;10.82;85.82
36222;BME280;22266;52.340;4.962;2023-02-17T10:54:53;101685.03;;;10.98;86.50
36222;BME280;22266;52.340;4.962;2023-02-17T10:57:22;101683.28;;;11.13;85.79
36222;BME280;22266;52.340;4.962;2023-02-17T10:59:52;101702.56;;;11.25;84.48
36222;BME280;22266;52.340;4.962;2023-02-17T11:02:21;101711.25;;;11.12;84.07
36222;BME280;22266;52.340;4.962;2023-02-17T11:04:51;101728.31;;;10.96;84.66
36222;BME280;22266;52.340;4.962;2023-02-17T11:07:30;101732.69;;;10.97;84.41
36222;BME280;22266;52.340;4.962;2023-02-17T11:10:00;101708.88;;;11.09;85.83
36222;BME280;22266;52.340;4.962;2023-02-17T11:12:46;101732.16;;;11.02;84.65
36222;BME280;22266;52.340;4.962;2023-02-17T11:15:21;101746.19;;;10.89;84.44
36222;BME280;22266;52.340;4.962;2023-02-17T11:17:49;101734.44;;;10.82;85.12
36222;BME280;22266;52.340;4.962;2023-02-17T11:22:45;101703.72;;;10.60;85.90
36222;BME280;22266;52.340;4.962;2023-02-17T11:25:30;101721.56;;;10.53;86.11
36222;BME280;22266;52.340;4.962;2023-02-17T11:28:05;101705.06;;;10.56;86.26
36222;BME280;22266;52.340;4.962;2023-02-17T11:30:33;101728.81;;;10.52;86.55
36222;BME280;22266;52.340;4.962;2023-02-17T11:33:14;101729.78;;;10.68;86.33
36222;BME280;22266;52.340;4.962;2023-02-17T11:38:21;101744.72;;;10.78;85.92
36222;BME280;22266;52.340;4.962;2023-02-17T11:40:52;101737.50;;;10.71;85.42
36222;BME280;22266;52.340;4.962;2023-02-17T11:43:19;101744.78;;;10.62;85.16
36222;BME280;22266;52.340;4.962;2023-02-17T11:51:50;101753.72;;;10.46;86.52
36222;BME280;22266;52.340;4.962;2023-02-17T11:54:26;101753.22;;;10.51;86.07
36222;BME280;22266;52.340;4.962;2023-02-17T11:57:26;101752.22;;;10.44;86.75
36222;BME280;22266;52.340;4.962;2023-02-17T12:00:20;101758.75;;;10.41;86.52
36222;BME280;22266;52.340;4.962;2023-02-17T12:14:14;101756.25;;;10.48;86.46
36222;BME280;22266;52.340;4.962;2023-02-17T12:16:49;101745.44;;;10.56;86.29
36222;BME280;22266;52.340;4.962;2023-02-17T12:22:17;101764.63;;;10.53;86.25
36222;BME280;22266;52.340;4.962;2023-02-17T12:36:07;101767.81;;;10.56;85.23
36222;BME280;22266;52.340;4.962;2023-02-17T12:38:47;101793.56;;;10.67;85.24
36222;BME280;22266;52.340;4.962;2023-02-17T12:41:35;101804.53;;;10.66;85.13
36222;BME280;22266;52.340;4.962;2023-02-17T12:44:09;101797.28;;;10.66;84.78
36222;BME280;22266;52.340;4.962;2023-02-17T12:46:41;101791.06;;;10.66;84.53
36222;BME280;22266;52.340;4.962;2023-02-17T12:49:13;101777.94;;;10.62;84.64
36222;BME280;22266;52.340;4.962;2023-02-17T12:51:51;101781.28;;;10.64;84.79
36222;BME280;22266;52.340;4.962;2023-02-17T12:54:21;101800.28;;;10.79;84.88
36222;BME280;22266;52.340;4.962;2023-02-17T12:57:10;101797.75;;;10.86;84.00
36222;BME280;22266;52.340;4.962;2023-02-17T12:59:41;101809.53;;;10.77;83.95
36222;BME280;22266;52.340;4.962;2023-02-17T13:02:13;101796.56;;;10.72;84.36
36222;BME280;22266;52.340;4.962;2023-02-17T13:04:42;101776.88;;;10.80;84.23
36222;BME280;22266;52.340;4.962;2023-02-17T13:07:34;101785.47;;;10.67;84.35
36222;BME280;22266;52.340;4.962;2023-02-17T13:10:04;101806.69;;;10.70;84.63
36222;BME280;22266;52.340;4.962;2023-02-17T13:12:36;101810.38;;;10.69;84.49
36222;BME280;22266;52.340;4.962;2023-02-17T13:15:25;101826.19;;;10.72;84.45
36222;BME280;22266;52.340;4.962;2023-02-17T13:18:00;101802.47;;;10.68;84.53
36222;BME280;22266;52.340;4.962;2023-02-17T13:23:28;101800.78;;;10.75;84.39
36222;BME280;22266;52.340;4.962;2023-02-17T13:28:38;101807.88;;;10.68;84.32
36222;BME280;22266;52.340;4.962;2023-02-17T13:31:17;101811.25;;;10.70;84.31
36222;BME280;22266;52.340;4.962;2023-02-17T13:33:47;101812.41;;;10.75;84.00
36222;BME280;22266;52.340;4.962;2023-02-17T13:39:03;101807.84;;;10.76;84.02
36222;BME280;22266;52.340;4.962;2023-02-17T13:41:45;101806.81;;;10.77;84.13
36222;BME280;22266;52.340;4.962;2023-02-17T13:46:46;101803.03;;;11.10;83.66
36222;BME280;22266;52.340;4.962;2023-02-17T13:49:20;101792.63;;;10.99;83.44
36222;BME280;22266;52.340;4.962;2023-02-17T13:51:47;101805.41;;;11.05;83.28
36222;BME280;22266;52.340;4.962;2023-02-17T13:54:19;101793.47;;;11.00;82.78
36222;BME280;22266;52.340;4.962;2023-02-17T13:56:50;101798.88;;;10.92;83.35
36222;BME280;22266;52.340;4.962;2023-02-17T13:59:24;101787.81;;;10.86;83.45
36222;BME280;22266;52.340;4.962;2023-02-17T14:01:52;101802.94;;;10.87;83.39
36222;BME280;22266;52.340;4.962;2023-02-17T14:04:27;101805.91;;;11.01;83.27
36222;BME280;22266;52.340;4.962;2023-02-17T14:06:59;101812.00;;;11.03;82.86
36222;BME280;22266;52.340;4.962;2023-02-17T14:09:31;101791.31;;;10.95;83.21
36222;BME280;22266;52.340;4.962;2023-02-17T14:12:00;101808.97;;;10.89;83.19
36222;BME280;22266;52.340;4.962;2023-02-17T14:14:33;101806.94;;;11.00;82.87
36222;BME280;22266;52.340;4.962;2023-02-17T14:17:06;101807.59;;;11.02;82.89
36222;BME280;22266;52.340;4.962;2023-02-17T14:19:45;101817.72;;;11.00;82.68
36222;BME280;22266;52.340;4.962;2023-02-17T14:22:30;101815.38;;;10.97;83.35
36222;BME280;22266;52.340;4.962;2023-02-17T14:24:59;101816.38;;;10.96;82.68
36222;BME280;22266;52.340;4.962;2023-02-17T14:27:26;101812.84;;;10.95;82.90
36222;BME280;22266;52.340;4.962;2023-02-17T14:29:52;101807.63;;;10.94;83.00
36222;BME280;22266;52.340;4.962;2023-02-17T14:32:36;101817.91;;;10.98;82.73
36222;BME280;22266;52.340;4.962;2023-02-17T14:37:38;101844.13;;;11.04;82.42
36222;BME280;22266;52.340;4.962;2023-02-17T14:40:22;101836.59;;;11.00;82.80
36222;BME280;22266;52.340;4.962;2023-02-17T14:42:49;101836.91;;;11.05;82.57
36222;BME280;22266;52.340;4.962;2023-02-17T14:45:17;101836.06;;;11.04;82.43